Time;durP1;ratioP1;P1;durP2;ratioP2;P2;SDS_P1;SDS_P2;PMS_P1;PMS_P2;Temp;Humidity;BMP_temperature;BMP_pressure;BME280_temperature;BME280_humidity;BME280_pressure;Samples;Min_cycle;Max_cycle;Signal;HPM_P1;HPM_P2
2023/10/14 00:02:01;;;;;;;;;0.00;0.00;;;;;19.42;100.00;100706.69;5062671;27;45715;-75
2023/10/14 00:04:27;;;;;;;;;0.00;0.00;;;;;19.31;100.00;100718.31;5065964;27;46020;-75
2023/10/14 00:06:54;;;;;;;;;0.33;0.00;;;;;19.31;100.00;100726.34;5076067;28;45316;-75
2023/10/14 00:09:21;;;;;;;;;2.00;0.00;;;;;19.21;100.00;100728.97;5069994;28;45279;-75
2023/10/14 00:11:53;;;;;;;;;1.00;0.00;;;;;19.16;100.00;100738.38;5070455;28;45490;-75
2023/10/14 00:14:18;;;;;;;;;0.00;0.00;;;;;19.00;100.00;100721.88;5076210;28;45388;-75
2023/10/14 00:16:50;;;;;;;;;0.00;0.00;;;;;19.05;100.00;100746.44;5051030;28;45343;-75
2023/10/14 00:19:20;;;;;;;;;1.00;0.00;;;;;18.99;100.00;100745.13;5066441;27;45615;-77
2023/10/14 00:21:48;;;;;;;;;0.00;0.00;;;;;18.96;100.00;100756.13;5065395;28;45482;-77
2023/10/14 00:24:39;;;;;;;;;0.67;0.00;;;;;18.88;100.00;100763.94;5056966;28;47977;-77
2023/10/14 00:27:07;;;;;;;;;0.00;0.00;;;;;18.84;100.00;100783.09;5067673;28;45495;-77
2023/10/14 00:29:33;;;;;;;;;0.00;0.00;;;;;18.72;100.00;100776.88;5066243;27;45400;-76
2023/10/14 00:31:58;;;;;;;;;0.00;0.00;;;;;18.71;100.00;100780.56;5057680;28;45639;-77
2023/10/14 00:34:25;;;;;;;;;0.00;0.00;;;;;18.70;100.00;100792.25;5072350;27;46350;-77
2023/10/14 00:36:56;;;;;;;;;0.00;0.00;;;;;18.53;100.00;100785.56;5073873;27;45411;-77
2023/10/14 00:39:28;;;;;;;;;0.00;0.00;;;;;18.58;100.00;100801.28;5058624;28;45554;-76
2023/10/14 00:41:55;;;;;;;;;1.00;0.00;;;;;18.54;100.00;100803.34;5065208;28;45481;-76
2023/10/14 00:44:24;;;;;;;;;0.00;0.00;;;;;18.52;100.00;100817.84;5066501;28;45404;-77
2023/10/14 00:46:50;;;;;;;;;0.00;0.00;;;;;18.46;100.00;100812.91;5056360;28;45555;-78
2023/10/14 00:49:28;;;;;;;;;2.00;0.00;;;;;18.44;100.00;100822.91;5052991;28;45460;-77
2023/10/14 00:51:59;;;;;;;;;0.00;0.00;;;;;18.43;100.00;100830.09;5061668;28;45613;-77
2023/10/14 00:54:46;;;;;;;;;0.00;0.00;;;;;18.30;100.00;100823.16;5050633;28;48227;-77
2023/10/14 00:59:51;;;;;;;;;0.00;0.00;;;;;18.30;100.00;100849.91;5069482;28;45406;-77
2023/10/14 01:02:33;;;;;;;;;0.00;0.00;;;;;18.33;100.00;100857.72;5055059;28;45233;-76
2023/10/14 01:05:13;;;;;;;;;0.00;0.00;;;;;18.14;100.00;100834.22;5074552;27;45593;-77
2023/10/14 01:07:39;;;;;;;;;0.00;0.00;;;;;18.31;100.00;100873.06;5056147;28;45590;-77
2023/10/14 01:10:06;;;;;;;;;1.00;0.00;;;;;18.05;100.00;100854.53;5066736;28;45420;-76
2023/10/14 01:12:44;;;;;;;;;0.00;0.00;;;;;18.18;100.00;100891.91;5044059;28;45549;-75
2023/10/14 01:15:21;;;;;;;;;1.00;0.00;;;;;18.11;100.00;100896.88;5061283;28;45686;-76
2023/10/14 01:17:48;;;;;;;;;1.00;0.00;;;;;17.86;100.00;100890.84;5063247;28;45477;-77
2023/10/14 01:22:39;;;;;;;;;0.00;0.00;;;;;17.82;100.00;100922.31;5075302;28;45296;-76
2023/10/14 01:25:12;;;;;;;;;0.00;0.00;;;;;17.61;100.00;100902.53;5073639;28;46377;-75
2023/10/14 01:27:38;;;;;;;;;0.00;0.00;;;;;17.56;100.00;100939.47;5055181;28;45288;-75
2023/10/14 01:30:14;;;;;;;;;0.00;0.00;;;;;17.45;100.00;100940.22;5059380;28;45454;-76
2023/10/14 01:32:48;;;;;;;;;3.33;0.33;;;;;17.36;100.00;100956.94;5061811;27;45462;-75
2023/10/14 01:35:25;;;;;;;;;0.00;0.00;;;;;17.27;100.00;100949.59;5070579;27;46367;-76
2023/10/14 01:37:52;;;;;;;;;0.00;0.00;;;;;17.16;100.00;100955.72;5075216;28;45331;-76
2023/10/14 01:40:29;;;;;;;;;2.00;1.00;;;;;17.08;100.00;100971.44;5072491;28;45353;-75
2023/10/14 01:43:05;;;;;;;;;2.00;0.00;;;;;17.03;100.00;100975.41;5064663;28;45506;-76
2023/10/14 01:45:39;;;;;;;;;0.67;0.67;;;;;16.81;100.00;100956.50;5052376;27;47401;-76
2023/10/14 01:50:38;;;;;;;;;1.00;1.00;;;;;16.66;100.00;100991.34;5074743;27;46573;-76
2023/10/14 01:53:10;;;;;;;;;2.00;0.00;;;;;16.59;100.00;101022.09;5061043;28;45377;-76
2023/10/14 01:55:37;;;;;;;;;1.00;1.00;;;;;16.43;100.00;101033.88;5074548;28;45471;-76
2023/10/14 01:58:02;;;;;;;;;0.33;0.00;;;;;16.28;100.00;101048.28;5057694;28;45503;-74
2023/10/14 02:00:35;;;;;;;;;1.00;0.00;;;;;16.05;100.00;101063.13;5068763;28;45545;-76
2023/10/14 02:03:06;;;;;;;;;0.00;0.00;;;;;15.88;99.52;101066.91;5050847;28;45532;-74
2023/10/14 02:05:34;;;;;;;;;0.33;0.00;;;;;15.61;95.86;101034.00;5071039;27;46921;-76
2023/10/14 02:08:00;;;;;;;;;1.67;0.00;;;;;15.58;94.11;101056.41;5070355;28;45368;-75
2023/10/14 02:10:27;;;;;;;;;3.00;0.00;;;;;15.57;96.35;101070.66;5063984;28;45489;-75
2023/10/14 02:12:53;;;;;;;;;1.33;0.33;;;;;15.47;96.88;101074.00;5064890;28;45569;-77
2023/10/14 02:15:19;;;;;;;;;1.00;1.00;;;;;15.30;96.50;101053.75;5085201;27;45632;-75
2023/10/14 02:17:46;;;;;;;;;2.00;1.00;;;;;14.93;95.89;100988.56;5076914;27;45352;-75
2023/10/14 02:20:27;;;;;;;;;0.67;0.00;;;;;15.40;92.97;101078.88;5046550;28;45567;-75
2023/10/14 02:22:53;;;;;;;;;0.00;0.00;;;;;15.31;89.60;101075.91;5049278;28;45393;-75
2023/10/14 02:25:20;;;;;;;;;2.67;1.00;;;;;15.20;90.83;101079.25;5061349;28;45475;-75
2023/10/14 02:27:45;;;;;;;;;3.00;1.00;;;;;15.20;91.53;101083.72;5058586;28;45332;-75
2023/10/14 02:30:11;;;;;;;;;2.67;1.67;;;;;15.28;89.20;101108.09;5056522;28;45563;-76
2023/10/14 02:32:36;;;;;;;;;2.00;2.00;;;;;15.23;88.57;101111.03;5055668;27;45392;-75
2023/10/14 02:35:02;;;;;;;;;1.00;1.00;;;;;15.18;89.13;101117.59;5036360;28;45530;-75
2023/10/14 02:37:27;;;;;;;;;3.00;1.00;;;;;15.19;90.35;101114.81;5047868;28;45547;-76
2023/10/14 02:39:53;;;;;;;;;3.67;1.67;;;;;15.17;90.02;101118.53;5036234;28;45274;-74
2023/10/14 02:42:18;;;;;;;;;0.67;0.67;;;;;15.06;90.02;101117.38;5046965;28;45213;-75
2023/10/14 02:44:44;;;;;;;;;2.00;0.00;;;;;15.09;91.97;101121.66;5046175;28;45558;-75
2023/10/14 02:47:10;;;;;;;;;2.33;1.00;;;;;14.81;90.65;101085.19;5028596;28;45448;-75
2023/10/14 02:49:37;;;;;;;;;4.00;0.00;;;;;14.91;91.57;101107.66;5037289;28;45447;-74
2023/10/14 02:52:38;;;;;;;;;0.67;0.67;;;;;14.98;90.37;101140.13;5047416;28;45625;-75
2023/10/14 02:55:18;;;;;;;;;1.67;0.33;;;;;14.92;89.95;101130.66;5042563;28;46046;-75
2023/10/14 02:57:41;;;;;;;;;2.00;0.00;;;;;14.84;92.14;101140.94;5039677;28;45321;-75
2023/10/14 03:00:09;;;;;;;;;0.00;0.00;;;;;14.72;92.28;101120.38;5032273;28;45448;-75
2023/10/14 03:02:54;;;;;;;;;1.67;0.67;;;;;14.85;91.38;101147.13;5035987;28;45503;-75
2023/10/14 03:05:35;;;;;;;;;2.33;0.00;;;;;14.71;89.55;101145.28;5039796;28;45634;-75
2023/10/14 03:08:08;;;;;;;;;4.00;0.00;;;;;14.50;90.24;101127.88;5047870;28;45289;-74
2023/10/14 03:10:40;;;;;;;;;1.00;1.00;;;;;14.72;92.12;101157.66;5050121;28;45285;-74
2023/10/14 03:13:11;;;;;;;;;2.00;0.00;;;;;14.60;89.39;101158.34;5030348;28;45560;-74
2023/10/14 03:15:38;;;;;;;;;0.00;0.00;;;;;14.50;89.64;101144.72;5049691;28;45479;-75
2023/10/14 03:18:05;;;;;;;;;0.67;0.33;;;;;14.59;91.55;101169.97;5043222;28;45469;-75
2023/10/14 03:23:12;;;;;;;;;3.33;1.33;;;;;14.50;88.68;101175.78;5056733;28;45494;-75
2023/10/14 03:25:38;;;;;;;;;1.33;1.00;;;;;14.50;88.92;101194.41;5040581;28;46298;-75
2023/10/14 03:28:14;;;;;;;;;3.00;1.00;;;;;14.29;89.34;101174.31;5042448;28;45876;-75
2023/10/14 03:30:55;;;;;;;;;3.00;1.00;;;;;14.45;92.07;101207.13;5046884;28;45344;-74
2023/10/14 03:33:21;;;;;;;;;1.00;1.00;;;;;14.41;92.29;101202.94;5051927;28;45510;-75
2023/10/14 03:36:02;;;;;;;;;4.00;1.00;;;;;14.38;90.77;101209.28;5062206;27;45534;-75
2023/10/14 03:38:38;;;;;;;;;1.00;1.00;;;;;14.40;94.46;101212.72;5055766;28;45503;-74
2023/10/14 03:41:19;;;;;;;;;2.00;1.00;;;;;14.39;90.90;101200.38;5069976;28;45403;-75
2023/10/14 03:43:58;;;;;;;;;3.00;1.33;;;;;14.22;91.18;101195.09;5067143;28;45554;-75
2023/10/14 03:46:44;;;;;;;;;1.67;0.00;;;;;14.29;91.35;101215.09;5064071;28;46058;-75
2023/10/14 03:49:25;;;;;;;;;3.33;0.33;;;;;14.29;88.81;101224.88;5072094;27;45675;-74
2023/10/14 03:51:56;;;;;;;;;2.33;1.00;;;;;14.25;90.82;101221.53;5047574;28;45274;-75
2023/10/14 03:54:28;;;;;;;;;1.33;1.33;;;;;14.12;88.18;101220.50;5055862;27;45619;-75
2023/10/14 03:56:57;;;;;;;;;2.00;0.33;;;;;14.19;88.22;101239.63;5052331;28;47695;-75
2023/10/14 03:59:23;;;;;;;;;3.00;1.00;;;;;14.14;88.90;101247.84;5070373;28;45437;-75
2023/10/14 04:01:54;;;;;;;;;4.00;1.00;;;;;14.13;93.42;101250.63;5068670;28;45363;-75
2023/10/14 04:04:21;;;;;;;;;0.00;0.00;;;;;14.12;92.18;101256.88;5048818;28;45509;-74
2023/10/14 04:07:13;;;;;;;;;1.00;1.00;;;;;14.08;92.88;101253.50;5069825;28;45375;-75
2023/10/14 04:09:51;;;;;;;;;1.00;1.00;;;;;14.04;91.24;101258.13;5075087;28;45392;-76
2023/10/14 04:17:39;;;;;;;;;1.00;1.00;;;;;13.86;91.02;101240.53;5074633;27;45733;-75
2023/10/14 04:22:38;;;;;;;;;1.00;1.00;;;;;13.89;93.65;101277.59;5072213;28;45538;-75
2023/10/14 04:35:31;;;;;;;;;1.00;1.00;;;;;13.81;97.57;101286.91;5065684;27;45495;-73
2023/10/14 04:37:58;;;;;;;;;2.00;1.67;;;;;13.78;96.65;101293.25;5075260;28;46268;-76
2023/10/14 04:43:18;;;;;;;;;1.00;0.00;;;;;13.70;96.71;101292.81;5067239;27;45272;-76
2023/10/14 04:45:52;;;;;;;;;1.00;1.00;;;;;13.50;96.35;101269.91;5066541;28;45368;-73
2023/10/14 04:48:28;;;;;;;;;3.00;1.00;;;;;13.55;96.97;101283.81;5069697;28;46243;-76
2023/10/14 04:50:56;;;;;;;;;3.67;0.67;;;;;13.54;97.99;101289.22;5057149;27;45594;-74
2023/10/14 04:53:26;;;;;;;;;5.00;2.00;;;;;13.52;99.13;101299.91;5055943;28;45432;-73
2023/10/14 04:55:52;;;;;;;;;0.67;0.67;;;;;13.44;100.00;101282.66;5076289;27;45573;-73
2023/10/14 04:58:24;;;;;;;;;1.00;1.00;;;;;13.37;96.97;101284.78;5076936;28;46560;-73
2023/10/14 05:00:49;;;;;;;;;1.00;1.00;;;;;13.48;96.62;101314.28;5055832;28;45486;-75
2023/10/14 05:03:23;;;;;;;;;2.00;0.00;;;;;13.41;100.00;101304.06;5061179;28;45346;-76
2023/10/14 05:05:52;;;;;;;;;1.00;1.00;;;;;13.38;98.82;101296.25;5068123;27;45614;-73
2023/10/14 05:08:21;;;;;;;;;3.00;1.67;;;;;13.39;100.00;101308.59;5063145;28;47986;-75
2023/10/14 05:10:50;;;;;;;;;1.00;1.00;;;;;13.15;99.39;101273.50;5047049;28;45465;-76
2023/10/14 05:13:16;;;;;;;;;1.00;1.00;;;;;13.31;99.65;101300.16;5056124;28;45479;-77
2023/10/14 05:15:45;;;;;;;;;1.00;1.00;;;;;13.27;100.00;101307.41;5055668;28;45384;-76
2023/10/14 05:18:17;;;;;;;;;3.33;1.67;;;;;13.13;100.00;101291.31;5054225;28;47028;-75
2023/10/14 05:20:56;;;;;;;;;4.33;1.00;;;;;13.20;100.00;101302.47;5070781;27;45446;-75
2023/10/14 05:23:30;;;;;;;;;0.33;0.33;;;;;13.18;100.00;101320.31;5069811;28;45273;-75
2023/10/14 05:25:56;;;;;;;;;1.67;1.67;;;;;13.13;99.81;101320.50;5055087;28;45472;-75
2023/10/14 05:28:29;;;;;;;;;3.00;2.67;;;;;13.07;99.33;101319.00;5075146;28;46404;-75
2023/10/14 05:31:00;;;;;;;;;2.00;1.00;;;;;13.06;100.00;101327.91;5054194;28;45535;-76
2023/10/14 05:33:27;;;;;;;;;4.33;1.00;;;;;13.07;100.00;101340.25;5058835;28;45341;-76
2023/10/14 05:35:56;;;;;;;;;5.00;1.33;;;;;13.03;100.00;101337.81;5047413;28;45481;-75
2023/10/14 05:38:22;;;;;;;;;4.00;2.00;;;;;12.91;100.00;101322.47;5084605;27;46004;-76
2023/10/14 05:40:55;;;;;;;;;3.00;1.00;;;;;12.99;100.00;101346.84;5053290;28;45405;-75
2023/10/14 05:43:21;;;;;;;;;2.00;2.00;;;;;12.94;100.00;101340.91;5071249;27;45459;-75
2023/10/14 05:45:47;;;;;;;;;2.00;2.00;;;;;13.00;100.00;101362.72;5059764;28;45569;-75
2023/10/14 05:48:12;;;;;;;;;4.00;2.00;;;;;12.92;100.00;101338.34;5072661;28;50391;-74
2023/10/14 05:50:38;;;;;;;;;3.00;3.00;;;;;12.93;100.00;101337.38;5062047;28;45403;-75
2023/10/14 05:53:07;;;;;;;;;5.00;3.00;;;;;12.95;100.00;101345.28;5059140;28;45502;-75
2023/10/14 05:55:33;;;;;;;;;3.67;3.67;;;;;13.09;100.00;101363.25;5068357;28;45528;-75
2023/10/14 05:58:00;;;;;;;;;3.33;2.33;;;;;13.02;100.00;101350.22;5071798;28;45479;-75
2023/10/14 06:00:27;;;;;;;;;5.67;4.00;;;;;13.09;100.00;101376.53;5072843;28;45325;-76
2023/10/14 06:02:54;;;;;;;;;3.00;3.00;;;;;12.94;100.00;101351.53;5055848;28;45492;-76
2023/10/14 06:05:22;;;;;;;;;4.67;4.00;;;;;13.00;100.00;101364.50;5074365;28;45751;-76
2023/10/14 06:07:47;;;;;;;;;6.00;3.00;;;;;13.06;100.00;101377.47;5060569;28;48390;-75
2023/10/14 06:10:23;;;;;;;;;2.00;2.00;;;;;13.04;100.00;101372.25;5072967;28;45308;-76
2023/10/14 06:12:50;;;;;;;;;3.67;2.00;;;;;12.98;100.00;101375.22;5077767;28;45316;-74
2023/10/14 06:15:19;;;;;;;;;3.00;3.00;;;;;13.06;100.00;101388.09;5072829;28;45297;-76
2023/10/14 06:17:46;;;;;;;;;2.00;2.00;;;;;12.89;100.00;101372.16;5048462;28;47626;-75
2023/10/14 06:20:15;;;;;;;;;5.00;2.00;;;;;13.06;100.00;101404.03;5053259;28;45632;-74
2023/10/14 06:22:42;;;;;;;;;2.33;2.00;;;;;13.00;100.00;101407.84;5086767;27;45336;-76
2023/10/14 06:25:07;;;;;;;;;2.00;2.00;;;;;12.91;100.00;101410.09;5075410;28;45561;-74
2023/10/14 06:27:33;;;;;;;;;2.33;1.00;;;;;12.86;100.00;101409.47;5061465;28;46693;-75
2023/10/14 06:29:58;;;;;;;;;2.33;2.00;;;;;12.93;100.00;101430.31;5076781;28;45543;-76
2023/10/14 06:32:24;;;;;;;;;3.00;2.33;;;;;12.85;100.00;101426.31;5069377;28;45460;-76
2023/10/14 06:34:59;;;;;;;;;2.00;2.00;;;;;12.74;100.00;101407.34;5066474;28;45268;-74
2023/10/14 06:37:25;;;;;;;;;1.67;1.67;;;;;12.82;100.00;101429.97;5064680;28;45527;-76
2023/10/14 06:39:51;;;;;;;;;3.00;3.00;;;;;12.66;100.00;101405.06;5053976;28;45480;-75
2023/10/14 06:42:19;;;;;;;;;2.67;2.00;;;;;12.82;100.00;101435.28;5069585;28;45324;-75
2023/10/14 06:44:45;;;;;;;;;3.67;2.00;;;;;12.78;100.00;101433.69;5057023;28;45406;-76
2023/10/14 06:47:11;;;;;;;;;6.00;1.33;;;;;12.83;100.00;101446.72;5069958;28;45387;-75
2023/10/14 06:49:41;;;;;;;;;3.33;2.67;;;;;12.77;100.00;101439.06;5066300;28;45423;-75
2023/10/14 06:52:07;;;;;;;;;3.00;2.00;;;;;12.80;100.00;101453.06;5066635;28;45553;-75
2023/10/14 06:54:36;;;;;;;;;3.00;2.00;;;;;12.87;100.00;101466.91;5059765;28;45347;-75
2023/10/14 06:57:07;;;;;;;;;3.67;2.00;;;;;12.76;100.00;101447.97;5068233;28;45312;-75
2023/10/14 06:59:38;;;;;;;;;6.33;2.00;;;;;12.91;100.00;101465.84;5066095;28;45437;-75
2023/10/14 07:02:04;;;;;;;;;2.00;1.00;;;;;12.98;100.00;101477.91;5041084;28;45278;-75
2023/10/14 07:04:29;;;;;;;;;2.00;2.00;;;;;12.97;100.00;101473.50;5076565;28;45557;-75
2023/10/14 07:06:58;;;;;;;;;5.00;3.67;;;;;13.01;100.00;101481.28;5046838;28;47152;-76
2023/10/14 07:09:27;;;;;;;;;2.00;2.00;;;;;13.01;100.00;101468.00;5070207;28;45385;-75
2023/10/14 07:11:55;;;;;;;;;3.00;3.00;;;;;13.03;100.00;101484.72;5072328;28;45262;-75
2023/10/14 07:14:21;;;;;;;;;6.33;4.00;;;;;13.18;100.00;101498.25;5045400;28;45645;-76
2023/10/14 07:16:46;;;;;;;;;4.67;3.00;;;;;13.09;100.00;101488.91;5060212;28;45541;-75
2023/10/14 07:19:11;;;;;;;;;3.00;2.00;;;;;13.19;100.00;101498.16;5071550;28;45282;-76
2023/10/14 07:21:36;;;;;;;;;1.33;1.00;;;;;13.12;99.25;101488.75;5056279;28;45437;-76
2023/10/14 07:24:05;;;;;;;;;2.67;1.67;;;;;13.16;98.30;101497.44;5071939;28;45529;-75
2023/10/14 07:26:36;;;;;;;;;1.33;1.00;;;;;13.29;100.00;101514.53;5055091;28;47754;-75
2023/10/14 07:29:05;;;;;;;;;7.00;4.00;;;;;13.36;99.34;101530.13;5052381;28;45390;-75
2023/10/14 07:31:32;;;;;;;;;5.00;2.00;;;;;13.35;97.95;101528.38;5070220;28;45717;-76
2023/10/14 07:34:02;;;;;;;;;1.67;1.00;;;;;13.38;96.80;101527.41;5066597;28;45336;-75
2023/10/14 07:36:31;;;;;;;;;1.00;1.00;;;;;13.40;97.06;101518.44;5068665;28;45494;-76
2023/10/14 07:39:02;;;;;;;;;3.67;1.00;;;;;13.52;96.00;101522.28;5057055;28;45328;-76
2023/10/14 07:41:28;;;;;;;;;3.33;2.33;;;;;13.52;96.11;101522.28;5072031;28;45363;-75
2023/10/14 07:43:53;;;;;;;;;2.33;1.67;;;;;13.53;95.14;101522.22;5079016;28;45701;-76
2023/10/14 07:46:19;;;;;;;;;2.00;1.00;;;;;13.41;94.74;101509.53;5059889;28;47754;-75
2023/10/14 07:48:44;;;;;;;;;2.67;1.33;;;;;13.63;95.82;101543.03;5059310;28;45327;-76
2023/10/14 07:51:09;;;;;;;;;7.00;2.33;;;;;13.60;95.25;101535.22;5048163;28;45569;-75
2023/10/14 07:53:35;;;;;;;;;5.00;2.00;;;;;13.54;93.17;101523.97;5053377;28;45657;-76
2023/10/14 07:56:00;;;;;;;;;3.00;1.67;;;;;13.73;92.98;101570.91;5054254;28;47915;-75
2023/10/14 07:58:27;;;;;;;;;3.00;2.00;;;;;13.67;92.42;101553.47;5060884;28;45559;-75
2023/10/14 08:00:54;;;;;;;;;4.33;2.00;;;;;13.50;91.85;101530.34;5064770;28;45458;-77
2023/10/14 08:03:22;;;;;;;;;1.67;1.67;;;;;13.84;92.64;101577.41;5043898;28;45416;-76
2023/10/14 08:05:53;;;;;;;;;2.67;2.67;;;;;13.88;92.36;101578.13;5065374;27;46213;-75
2023/10/14 08:08:20;;;;;;;;;4.67;3.00;;;;;13.94;91.97;101577.84;5058604;28;45306;-76
2023/10/14 08:10:50;;;;;;;;;5.00;3.00;;;;;13.94;91.54;101573.38;5059631;28;45559;-76
2023/10/14 08:13:24;;;;;;;;;6.00;2.33;;;;;13.98;91.71;101574.97;5057224;28;45328;-75
2023/10/14 08:15:50;;;;;;;;;2.00;2.00;;;;;14.00;89.02;101564.25;5071682;28;45459;-77
2023/10/14 08:18:17;;;;;;;;;4.33;2.33;;;;;14.10;90.06;101582.31;5078639;28;45334;-76
2023/10/14 08:20:43;;;;;;;;;3.00;2.00;;;;;14.11;89.37;101580.53;5046419;28;45379;-76
2023/10/14 08:23:09;;;;;;;;;2.67;0.67;;;;;14.27;88.25;101588.59;5067508;28;45216;-76
2023/10/14 08:25:43;;;;;;;;;3.00;2.00;;;;;14.27;88.65;101578.84;5064425;28;46201;-76
2023/10/14 08:28:09;;;;;;;;;2.00;2.00;;;;;14.39;90.11;101588.91;5068435;28;45312;-76
2023/10/14 08:30:50;;;;;;;;;2.00;2.00;;;;;14.43;89.99;101586.97;5075309;28;45222;-77
2023/10/14 08:33:21;;;;;;;;;0.33;0.33;;;;;14.49;85.14;101576.00;5066778;28;45449;-76
2023/10/14 08:35:48;;;;;;;;;2.33;1.00;;;;;14.52;83.19;101573.19;5055581;28;45372;-76
2023/10/14 08:38:14;;;;;;;;;1.00;1.00;;;;;14.44;79.42;101567.38;5072368;28;45358;-76
2023/10/14 08:40:40;;;;;;;;;4.67;1.00;;;;;14.65;80.89;101576.94;5060480;28;45364;-76
2023/10/14 08:43:10;;;;;;;;;1.00;0.67;;;;;14.81;80.64;101593.84;5059596;28;45471;-76
2023/10/14 08:45:38;;;;;;;;;2.33;2.00;;;;;14.85;80.44;101594.53;5058079;28;45293;-76
2023/10/14 08:48:05;;;;;;;;;1.33;1.33;;;;;14.81;82.04;101569.00;5057960;28;45332;-77
2023/10/14 08:50:33;;;;;;;;;1.67;1.67;;;;;14.88;79.48;101579.25;5064501;28;45404;-76
2023/10/14 08:53:03;;;;;;;;;0.00;0.00;;;;;15.17;78.44;101612.34;5074238;28;45558;-77
2023/10/14 08:55:32;;;;;;;;;4.00;1.00;;;;;15.28;78.51;101611.78;5081162;28;47735;-75
2023/10/14 08:58:02;;;;;;;;;1.00;1.00;;;;;15.40;75.95;101608.44;5080711;28;45303;-76
2023/10/14 09:00:29;;;;;;;;;3.33;1.00;;;;;15.57;76.24;101613.75;5072745;28;45436;-75
2023/10/14 09:02:56;;;;;;;;;0.67;0.67;;;;;15.76;74.70;101613.59;5058077;28;45379;-76
2023/10/14 09:05:22;;;;;;;;;5.33;2.00;;;;;15.89;76.28;101612.81;5076821;27;46670;-76
2023/10/14 09:07:50;;;;;;;;;3.00;2.00;;;;;16.02;74.16;101621.00;5059820;28;45271;-76
2023/10/14 09:10:20;;;;;;;;;1.00;1.00;;;;;16.05;73.76;101621.69;5073474;28;45423;-76
2023/10/14 09:12:55;;;;;;;;;1.67;0.33;;;;;16.16;72.77;101619.25;5062222;28;45469;-77
2023/10/14 09:15:21;;;;;;;;;0.00;0.00;;;;;16.09;72.07;101607.22;5066103;28;45311;-76
2023/10/14 09:17:47;;;;;;;;;0.33;0.00;;;;;16.11;72.84;101604.44;5063069;28;45311;-76
2023/10/14 09:20:34;;;;;;;;;3.00;0.67;;;;;16.31;72.01;101628.19;5049136;28;45647;-76
2023/10/14 09:23:19;;;;;;;;;2.00;0.00;;;;;16.32;69.37;101629.06;5050287;28;45270;-76
2023/10/14 09:25:53;;;;;;;;;1.00;1.00;;;;;16.38;72.35;101631.38;5041525;28;46888;-76
2023/10/14 09:28:20;;;;;;;;;0.00;0.00;;;;;16.45;72.55;101635.41;5062837;28;45267;-76
2023/10/14 09:30:55;;;;;;;;;0.33;0.33;;;;;16.39;73.10;101614.41;5077591;28;45442;-75
2023/10/14 09:33:35;;;;;;;;;1.67;0.00;;;;;16.37;73.19;101611.81;5056408;28;45409;-76
2023/10/14 09:36:06;;;;;;;;;1.00;1.00;;;;;16.57;71.67;101643.59;5057105;28;46330;-76
2023/10/14 09:38:34;;;;;;;;;1.33;1.00;;;;;16.60;73.04;101645.22;5072657;28;45419;-75
2023/10/14 09:41:05;;;;;;;;;2.00;1.00;;;;;16.62;72.43;101636.16;5055152;27;45589;-76
2023/10/14 09:43:32;;;;;;;;;1.67;0.33;;;;;16.64;72.96;101638.75;5079814;27;45450;-76
2023/10/14 09:45:59;;;;;;;;;1.33;1.00;;;;;16.72;70.96;101638.31;5046569;28;46130;-76
2023/10/14 09:48:29;;;;;;;;;2.00;2.00;;;;;16.77;72.13;101649.56;5072646;28;45410;-77
2023/10/14 09:50:56;;;;;;;;;1.67;1.00;;;;;16.73;71.30;101646.22;5074085;28;45352;-76
2023/10/14 09:53:26;;;;;;;;;3.67;2.67;;;;;16.75;74.42;101635.44;5051893;28;45557;-76
2023/10/14 09:55:56;;;;;;;;;2.00;1.00;;;;;16.87;73.18;101646.25;5077747;28;46320;-75
2023/10/14 09:58:23;;;;;;;;;3.00;0.67;;;;;16.80;67.87;101655.59;5069402;28;45369;-76
2023/10/14 10:00:49;;;;;;;;;2.33;0.00;;;;;16.81;69.82;101654.66;5068080;28;45510;-76
2023/10/14 10:03:19;;;;;;;;;4.00;1.00;;;;;16.94;68.23;101652.97;5078889;28;45384;-76
2023/10/14 10:06:03;;;;;;;;;1.33;1.33;;;;;16.94;69.01;101658.31;5052790;28;48167;-75
2023/10/14 10:09:06;;;;;;;;;1.00;1.00;;;;;17.00;72.18;101652.59;5049014;28;45558;-76
2023/10/14 10:11:33;;;;;;;;;1.00;1.00;;;;;17.00;70.25;101649.06;5074310;28;45229;-76
2023/10/14 10:13:59;;;;;;;;;6.33;0.00;;;;;16.96;67.85;101656.38;5050130;28;45787;-76
2023/10/14 10:16:30;;;;;;;;;3.67;1.00;;;;;16.97;69.13;101655.44;5079966;28;45467;-76
2023/10/14 10:18:57;;;;;;;;;2.00;0.33;;;;;16.78;68.05;101638.81;5055548;28;45494;-75
2023/10/14 10:21:34;;;;;;;;;1.00;1.00;;;;;16.93;68.01;101677.97;5057390;28;45469;-76
2023/10/14 10:24:19;;;;;;;;;2.00;1.00;;;;;16.96;70.99;101679.56;5071076;28;45288;-75
2023/10/14 10:27:03;;;;;;;;;2.33;1.00;;;;;16.80;70.81;101660.94;5060813;28;45799;-76
2023/10/14 10:29:32;;;;;;;;;2.00;1.00;;;;;16.95;69.74;101705.44;5079830;28;45321;-77
2023/10/14 10:32:09;;;;;;;;;2.00;0.67;;;;;16.71;70.62;101672.16;5079544;28;45343;-76
2023/10/14 10:35:06;;;;;;;;;1.00;0.67;;;;;16.86;71.38;101715.81;5076513;28;45415;-75
2023/10/14 10:37:34;;;;;;;;;1.33;1.33;;;;;16.71;72.22;101688.19;5063619;27;45627;-76
2023/10/14 10:40:05;;;;;;;;;1.00;1.00;;;;;16.71;70.51;101692.66;5059341;28;45376;-76
2023/10/14 10:42:31;;;;;;;;;2.67;1.00;;;;;16.75;70.37;101713.78;5068991;28;45351;-76
2023/10/14 10:44:57;;;;;;;;;1.00;1.00;;;;;16.72;69.25;101710.44;5077131;28;45471;-76
2023/10/14 10:47:22;;;;;;;;;1.00;1.00;;;;;16.55;70.00;101680.22;5068981;28;45318;-77
2023/10/14 10:49:56;;;;;;;;;1.00;1.00;;;;;16.77;70.19;101708.34;5074960;28;45402;-76
2023/10/14 10:52:24;;;;;;;;;1.00;1.00;;;;;16.84;69.21;101707.91;5048528;28;45253;-76
2023/10/14 10:54:51;;;;;;;;;1.00;0.00;;;;;16.90;70.65;101718.22;5059429;28;45578;-77
2023/10/14 10:57:17;;;;;;;;;3.00;1.00;;;;;16.78;68.13;101675.34;5070700;28;45415;-76
2023/10/14 10:59:43;;;;;;;;;0.67;0.67;;;;;17.06;69.88;101715.50;5056777;28;45622;-76
2023/10/14 11:02:11;;;;;;;;;1.67;1.67;;;;;16.87;68.61;101691.69;5071115;28;45451;-76
2023/10/14 11:04:38;;;;;;;;;0.00;0.00;;;;;16.95;64.67;101718.78;5069009;28;45471;-77
2023/10/14 11:07:06;;;;;;;;;2.00;0.00;;;;;16.73;64.09;101698.78;5069484;28;46615;-76
2023/10/14 11:09:31;;;;;;;;;0.00;0.00;;;;;16.67;66.46;101716.03;5060976;28;45438;-76
2023/10/14 11:12:00;;;;;;;;;1.00;1.00;;;;;16.62;66.18;101726.13;5052237;28;45353;-76
2023/10/14 11:14:26;;;;;;;;;2.67;1.00;;;;;16.51;65.65;101715.16;5072702;28;45370;-77
2023/10/14 11:16:56;;;;;;;;;0.33;0.00;;;;;16.44;68.32;101717.31;5072502;28;45511;-76
2023/10/14 11:19:22;;;;;;;;;1.00;1.00;;;;;16.46;68.15;101723.41;5067326;28;45426;-76
2023/10/14 11:21:50;;;;;;;;;1.67;0.00;;;;;16.35;70.79;101727.66;5056917;28;50366;-76
2023/10/14 11:24:16;;;;;;;;;1.00;1.00;;;;;16.17;65.48;101713.53;5077766;28;45373;-76
2023/10/14 11:26:44;;;;;;;;;0.00;0.00;;;;;16.27;66.78;101738.75;5066441;28;45327;-76
2023/10/14 11:29:10;;;;;;;;;0.00;0.00;;;;;16.25;68.48;101735.31;5070033;28;45290;-76
2023/10/14 11:31:39;;;;;;;;;0.33;0.33;;;;;16.08;68.53;101706.91;5072929;28;45284;-76
2023/10/14 11:34:05;;;;;;;;;3.00;0.67;;;;;16.21;66.36;101738.25;5059062;28;45531;-76
2023/10/14 11:36:30;;;;;;;;;0.00;0.00;;;;;16.21;66.42;101735.56;5072914;27;45531;-77
2023/10/14 11:38:58;;;;;;;;;3.00;0.00;;;;;16.21;67.88;101723.09;5073193;27;45459;-77
2023/10/14 11:41:26;;;;;;;;;0.00;0.00;;;;;16.18;68.71;101717.94;5071866;28;45300;-76
2023/10/14 11:43:52;;;;;;;;;1.00;0.33;;;;;16.29;69.41;101723.53;5049102;28;45400;-76
2023/10/14 11:46:17;;;;;;;;;1.00;1.00;;;;;16.32;71.00;101725.16;5078771;28;46197;-77
2023/10/14 11:48:47;;;;;;;;;3.00;1.00;;;;;16.37;73.24;101712.41;5061904;28;46186;-76
2023/10/14 11:51:19;;;;;;;;;1.00;0.00;;;;;16.58;72.36;101732.59;5063883;28;45368;-76
2023/10/14 11:53:50;;;;;;;;;3.00;1.00;;;;;16.57;70.74;101713.03;5070827;28;45514;-73
2023/10/14 11:56:16;;;;;;;;;1.33;0.67;;;;;16.79;71.46;101735.81;5059641;28;45227;-76
2023/10/14 11:58:42;;;;;;;;;2.00;2.00;;;;;16.88;70.00;101727.28;5040474;28;45651;-75
2023/10/14 12:01:11;;;;;;;;;1.33;1.00;;;;;16.79;68.62;101712.63;5053768;28;45372;-75
2023/10/14 12:03:37;;;;;;;;;2.00;1.00;;;;;16.85;71.25;101719.44;5064488;28;45468;-76
2023/10/14 12:06:03;;;;;;;;;3.00;3.00;;;;;16.68;72.06;101696.41;5072662;28;45395;-76